createdAt,value
2023-02-26T00:01:24.229Z,0.60
2023-02-26T00:03:56.049Z,0.70
2023-02-26T00:06:24.839Z,0.60
2023-02-26T00:08:52.082Z,0.60
2023-02-26T00:11:19.436Z,0.60
2023-02-26T00:13:46.803Z,0.70
2023-02-26T00:16:34.226Z,0.70
2023-02-26T00:19:04.884Z,0.80
2023-02-26T00:21:32.883Z,0.80
2023-02-26T00:24:02.168Z,0.80
2023-02-26T00:26:31.407Z,0.80
2023-02-26T00:28:59.049Z,0.80
2023-02-26T00:31:26.144Z,0.80
2023-02-26T00:33:55.071Z,0.80
2023-02-26T00:36:25.659Z,0.70
2023-02-26T00:39:45.102Z,0.60
2023-02-26T00:42:12.914Z,0.60
2023-02-26T00:44:40.906Z,0.60
2023-02-26T00:47:31.051Z,0.60
2023-02-26T00:50:20.481Z,0.60
2023-02-26T00:53:03.322Z,0.70
2023-02-26T00:55:30.669Z,0.80
2023-02-26T00:57:57.657Z,0.80
2023-02-26T01:00:24.416Z,0.90
2023-02-26T01:02:51.480Z,0.80
2023-02-26T01:05:18.877Z,0.80
2023-02-26T01:07:54.481Z,0.80
2023-02-26T01:10:21.746Z,0.70
2023-02-26T01:12:48.899Z,0.70
2023-02-26T01:15:16.442Z,0.80
2023-02-26T01:18:06.447Z,0.70
2023-02-26T01:20:46.692Z,0.70
2023-02-26T01:23:17.027Z,0.80
2023-02-26T01:25:57.905Z,0.80
2023-02-26T01:28:26.270Z,0.80
2023-02-26T01:31:02.743Z,0.80
2023-02-26T01:33:42.385Z,0.70
2023-02-26T01:36:29.531Z,0.70
2023-02-26T01:39:31.297Z,0.80
2023-02-26T01:42:23.480Z,0.80
2023-02-26T01:45:14.909Z,0.90
2023-02-26T01:48:00.896Z,0.80
2023-02-26T01:50:32.078Z,0.80
2023-02-26T01:53:19.172Z,0.70
2023-02-26T01:55:50.161Z,0.70
2023-02-26T01:58:17.597Z,0.70
2023-02-26T02:00:44.426Z,0.60
2023-02-26T02:03:11.697Z,0.50
2023-02-26T02:05:53.428Z,0.50
2023-02-26T02:08:21.160Z,0.40
2023-02-26T02:10:50.551Z,0.50
2023-02-26T02:13:42.212Z,0.40
2023-02-26T02:16:11.901Z,0.40
2023-02-26T02:18:46.574Z,0.30
2023-02-26T02:21:25.858Z,0.30
2023-02-26T02:24:13.715Z,0.30
2023-02-26T02:27:02.197Z,0.30
2023-02-26T02:29:54.798Z,0.20
2023-02-26T02:32:39.911Z,0.20
2023-02-26T02:35:19.489Z,0.20
2023-02-26T02:38:06.451Z,0.10
2023-02-26T02:40:37.475Z,0.10
2023-02-26T02:43:10.888Z,0.10
2023-02-26T02:45:54.875Z,0.10
2023-02-26T02:48:29.432Z,0.10
2023-02-26T02:51:06.551Z,0.30
2023-02-26T02:53:54.905Z,0.30
2023-02-26T02:56:33.135Z,0.30
2023-02-26T02:59:12.161Z,0.30
2023-02-26T03:01:40.421Z,0.30
2023-02-26T03:04:13.486Z,0.20
2023-02-26T03:06:40.232Z,0.20
2023-02-26T03:09:08.717Z,0.10
2023-02-26T03:11:37.362Z,0.10
2023-02-26T03:14:06.346Z,0.20
2023-02-26T03:16:46.656Z,0.10
2023-02-26T03:19:27.807Z,0.10
2023-02-26T03:22:09.124Z,0.00
2023-02-26T03:27:31.161Z,0.00
2023-02-26T03:30:06.081Z,-0.10
2023-02-26T03:32:43.752Z,0.00
2023-02-26T03:35:16.710Z,-0.10
2023-02-26T03:37:47.734Z,0.00
2023-02-26T03:40:27.593Z,0.00
2023-02-26T03:43:00.556Z,-0.10
2023-02-26T03:45:33.138Z,-0.10
2023-02-26T03:48:02.923Z,-0.20
2023-02-26T03:50:46.560Z,-0.20
2023-02-26T03:53:16.907Z,-0.20
2023-02-26T03:55:52.718Z,-0.30
2023-02-26T03:58:19.503Z,-0.20
2023-02-26T04:00:52.809Z,-0.30
2023-02-26T04:03:27.304Z,-0.30
2023-02-26T04:05:54.436Z,-0.30
2023-02-26T04:08:22.591Z,-0.20
2023-02-26T04:10:58.688Z,-0.30
2023-02-26T04:13:25.993Z,-0.30
2023-02-26T04:15:52.816Z,-0.40
2023-02-26T04:18:19.508Z,-0.40
2023-02-26T04:20:46.171Z,-0.40
2023-02-26T04:23:12.946Z,-0.40
2023-02-26T04:25:40.000Z,-0.40
2023-02-26T04:28:06.704Z,-0.50
2023-02-26T04:30:33.473Z,-0.50
2023-02-26T04:33:00.167Z,-0.50
2023-02-26T04:35:26.967Z,-0.50
2023-02-26T04:37:53.709Z,-0.60
2023-02-26T04:40:20.576Z,-0.60
2023-02-26T04:42:47.699Z,-0.60
2023-02-26T04:45:14.565Z,-0.70
2023-02-26T04:47:41.278Z,-0.70
2023-02-26T04:50:08.944Z,-0.70
2023-02-26T04:52:35.735Z,-0.70
2023-02-26T04:55:02.533Z,-0.60
2023-02-26T04:57:29.215Z,-0.70
2023-02-26T04:59:56.028Z,-0.80
2023-02-26T05:02:22.701Z,-0.80
2023-02-26T05:04:49.472Z,-0.70
2023-02-26T05:07:16.453Z,-0.70
2023-02-26T05:09:43.301Z,-0.70
2023-02-26T05:12:10.012Z,-0.70
2023-02-26T05:14:36.741Z,-0.70
2023-02-26T05:17:03.497Z,-0.70
2023-02-26T05:19:30.195Z,-0.70
2023-02-26T05:21:56.918Z,-0.80
2023-02-26T05:24:23.654Z,-0.70
2023-02-26T05:26:50.365Z,-0.80
2023-02-26T05:29:17.067Z,-0.80
2023-02-26T05:31:43.881Z,-0.70
2023-02-26T05:34:10.840Z,-0.70
2023-02-26T05:36:37.589Z,-0.60
2023-02-26T05:39:04.341Z,-0.70
2023-02-26T05:41:31.019Z,-0.80
2023-02-26T05:43:57.721Z,-0.70
2023-02-26T05:46:24.849Z,-0.80
2023-02-26T05:48:51.771Z,-0.90
2023-02-26T05:51:18.487Z,-0.80
2023-02-26T05:53:46.143Z,-0.80
2023-02-26T05:56:12.901Z,-0.80
2023-02-26T05:58:39.696Z,-0.80
2023-02-26T06:01:06.431Z,-0.80
2023-02-26T06:03:33.337Z,-0.70
2023-02-26T06:06:00.005Z,-0.70
2023-02-26T06:08:26.903Z,-0.70
2023-02-26T06:10:53.651Z,-0.70
2023-02-26T06:13:20.341Z,-0.70
2023-02-26T06:15:50.423Z,-0.70
2023-02-26T06:18:17.159Z,-0.70
2023-02-26T06:20:43.939Z,-0.80
2023-02-26T06:23:10.645Z,-0.80
2023-02-26T06:25:37.359Z,-0.80
2023-02-26T06:28:04.114Z,-0.80
2023-02-26T06:30:30.952Z,-0.70
2023-02-26T06:32:57.964Z,-0.80
2023-02-26T06:35:24.684Z,-0.70
2023-02-26T06:37:51.498Z,-0.70
2023-02-26T06:40:18.417Z,-0.70
2023-02-26T06:42:45.142Z,-0.70
2023-02-26T06:45:11.916Z,-0.70
2023-02-26T06:47:38.598Z,-0.60
2023-02-26T06:50:05.978Z,-0.60
2023-02-26T06:52:33.151Z,-0.60
2023-02-26T06:54:59.908Z,-0.40
2023-02-26T06:57:26.621Z,-0.10
2023-02-26T06:59:53.349Z,0.30
2023-02-26T07:02:21.798Z,0.60
2023-02-26T07:04:48.569Z,1.00
2023-02-26T07:07:15.670Z,1.10
2023-02-26T07:09:44.401Z,1.10
2023-02-26T07:12:12.316Z,1.10
2023-02-26T07:14:39.089Z,1.00
2023-02-26T07:17:05.905Z,1.10
2023-02-26T07:19:32.634Z,1.30
2023-02-26T07:21:59.338Z,1.40
2023-02-26T07:24:26.064Z,1.80
2023-02-26T07:26:52.988Z,2.00
2023-02-26T07:29:20.359Z,2.30
2023-02-26T07:31:47.273Z,2.60
2023-02-26T07:34:14.038Z,2.80
2023-02-26T07:36:40.786Z,2.80
2023-02-26T07:39:07.666Z,2.90
2023-02-26T07:41:34.388Z,2.60
2023-02-26T07:44:01.685Z,2.80
2023-02-26T07:46:28.755Z,3.00
2023-02-26T07:48:55.733Z,2.90
2023-02-26T07:51:22.521Z,2.80
2023-02-26T07:53:49.354Z,2.60
2023-02-26T07:56:16.022Z,2.80
2023-02-26T07:58:42.740Z,2.60
2023-02-26T08:01:09.560Z,2.60
2023-02-26T08:03:36.363Z,2.60
2023-02-26T08:06:03.370Z,2.70
2023-02-26T08:08:30.105Z,2.60
2023-02-26T08:10:58.929Z,2.80
2023-02-26T08:13:25.675Z,3.00
2023-02-26T08:15:52.373Z,3.20
2023-02-26T08:18:19.165Z,3.20
2023-02-26T08:20:45.865Z,2.90
2023-02-26T08:23:12.913Z,2.90
2023-02-26T08:25:39.759Z,2.90
2023-02-26T08:28:06.566Z,3.30
2023-02-26T08:30:33.260Z,3.40
2023-02-26T08:32:59.949Z,3.40
2023-02-26T08:35:26.910Z,3.30
2023-02-26T08:37:54.546Z,3.20
2023-02-26T08:40:21.401Z,3.40
2023-02-26T08:42:48.355Z,3.50
2023-02-26T08:45:15.107Z,3.40
2023-02-26T08:47:55.661Z,3.40
2023-02-26T08:50:24.006Z,3.50
2023-02-26T08:52:50.740Z,3.00
2023-02-26T08:55:17.677Z,2.60
2023-02-26T08:57:44.384Z,2.20
2023-02-26T09:00:11.851Z,1.90
2023-02-26T09:02:38.836Z,1.80
2023-02-26T09:05:06.269Z,1.70
2023-02-26T09:07:32.967Z,1.70
2023-02-26T09:09:59.881Z,1.70
2023-02-26T09:12:26.742Z,1.70
2023-02-26T09:14:53.456Z,1.80
2023-02-26T09:17:20.161Z,1.80
2023-02-26T09:19:46.819Z,1.90
2023-02-26T09:22:13.511Z,1.90
2023-02-26T09:27:11.878Z,1.90
2023-02-26T09:29:38.565Z,1.90
2023-02-26T09:32:08.472Z,1.90
2023-02-26T09:34:36.232Z,2.00
2023-02-26T09:37:08.457Z,2.10
2023-02-26T09:39:36.216Z,2.10
2023-02-26T09:42:28.782Z,2.10
2023-02-26T09:45:00.109Z,2.30
2023-02-26T09:47:43.295Z,2.30
2023-02-26T09:50:28.407Z,2.30
2023-02-26T09:53:28.025Z,2.30
2023-02-26T09:56:06.983Z,2.30
2023-02-26T09:58:38.106Z,2.30
2023-02-26T10:01:14.153Z,2.30
2023-02-26T10:04:20.648Z,2.40
2023-02-26T10:06:59.769Z,2.50
2023-02-26T10:09:53.994Z,2.50
2023-02-26T10:12:24.798Z,2.60
2023-02-26T10:15:24.588Z,2.70
2023-02-26T10:18:04.818Z,2.60
2023-02-26T10:20:40.729Z,2.60
2023-02-26T10:23:56.270Z,2.60
2023-02-26T10:26:35.012Z,2.70
2023-02-26T10:29:10.626Z,2.80
2023-02-26T10:31:59.862Z,2.80
2023-02-26T10:34:37.695Z,2.70
2023-02-26T10:37:21.975Z,2.80
2023-02-26T10:40:13.549Z,2.90
2023-02-26T10:42:48.721Z,2.80
2023-02-26T10:45:28.404Z,2.80
2023-02-26T10:48:17.106Z,2.90
2023-02-26T10:50:52.357Z,2.90
2023-02-26T10:53:20.556Z,2.60
2023-02-26T10:56:17.858Z,2.70
2023-02-26T10:58:45.525Z,2.70
2023-02-26T11:01:17.519Z,2.70
2023-02-26T11:03:47.828Z,2.70
2023-02-26T11:06:34.179Z,2.90
2023-02-26T11:09:02.853Z,3.10
2023-02-26T11:11:54.877Z,3.20
2023-02-26T11:14:25.416Z,3.20
2023-02-26T11:16:56.541Z,3.30
2023-02-26T11:19:33.230Z,3.50
2023-02-26T11:22:04.336Z,3.70
2023-02-26T11:27:15.913Z,3.80
2023-02-26T11:29:46.962Z,3.90
2023-02-26T11:32:28.704Z,3.70
2023-02-26T11:34:55.586Z,3.60
2023-02-26T11:37:31.396Z,3.50
2023-02-26T11:40:18.031Z,3.40
2023-02-26T11:42:58.052Z,3.40
2023-02-26T11:45:25.442Z,3.60
2023-02-26T11:48:05.196Z,3.70
2023-02-26T11:50:42.191Z,4.00
2023-02-26T11:53:24.190Z,4.20
2023-02-26T11:56:00.783Z,4.20
2023-02-26T11:58:31.167Z,4.00
2023-02-26T12:01:02.801Z,4.20
2023-02-26T12:03:33.857Z,4.20
2023-02-26T12:06:01.646Z,4.20
2023-02-26T12:08:38.351Z,4.20
2023-02-26T12:11:32.267Z,4.30
2023-02-26T12:14:13.877Z,4.20
2023-02-26T12:17:18.135Z,4.20
2023-02-26T12:19:52.922Z,4.00
2023-02-26T12:22:28.333Z,3.90
2023-02-26T12:25:36.367Z,3.90
2023-02-26T12:28:27.532Z,3.80
2023-02-26T12:31:15.858Z,3.70
2023-02-26T12:34:08.503Z,3.70
2023-02-26T12:36:56.390Z,3.70
2023-02-26T12:40:08.417Z,3.60
2023-02-26T12:43:09.040Z,3.50
2023-02-26T12:45:55.705Z,3.80
2023-02-26T12:48:59.413Z,4.00
2023-02-26T12:51:47.241Z,4.00
2023-02-26T12:54:42.011Z,4.00
2023-02-26T12:57:18.053Z,4.10
2023-02-26T12:59:54.237Z,4.10
2023-02-26T13:02:39.699Z,4.20
2023-02-26T13:05:12.626Z,4.10
2023-02-26T13:07:56.046Z,4.10
2023-02-26T13:10:54.808Z,4.10
2023-02-26T13:13:30.436Z,4.00
2023-02-26T13:16:22.623Z,4.00
2023-02-26T13:19:02.172Z,4.10
2023-02-26T13:21:34.511Z,4.10
2023-02-26T13:24:17.594Z,4.30
2023-02-26T13:26:47.283Z,4.30
2023-02-26T13:29:35.570Z,4.30
2023-02-26T13:32:15.765Z,4.30
2023-02-26T13:34:50.331Z,4.20
2023-02-26T13:37:33.740Z,4.20
2023-02-26T13:40:27.230Z,4.20
2023-02-26T13:43:32.487Z,4.30
2023-02-26T13:46:14.280Z,4.30
2023-02-26T13:48:59.175Z,4.40
2023-02-26T13:51:35.256Z,4.60
2023-02-26T13:54:04.674Z,4.60
2023-02-26T13:56:31.325Z,4.30
2023-02-26T13:59:13.248Z,4.30
2023-02-26T14:02:18.587Z,4.30
2023-02-26T14:04:51.638Z,4.30
2023-02-26T14:08:08.572Z,4.20
2023-02-26T14:10:45.931Z,4.20
2023-02-26T14:13:19.671Z,4.20
2023-02-26T14:16:14.375Z,4.20
2023-02-26T14:18:50.320Z,4.40
2023-02-26T14:21:37.974Z,4.50
2023-02-26T14:27:13.887Z,4.50
2023-02-26T14:29:56.536Z,4.50
2023-02-26T14:32:34.624Z,4.60
2023-02-26T14:35:21.747Z,4.60
2023-02-26T14:38:05.684Z,4.60
2023-02-26T14:40:50.229Z,4.40
2023-02-26T14:43:31.539Z,4.40
2023-02-26T14:45:58.306Z,4.30
2023-02-26T14:48:30.191Z,4.30
2023-02-26T14:51:05.791Z,4.40
2023-02-26T14:53:47.464Z,4.40
2023-02-26T14:56:31.220Z,4.40
2023-02-26T14:59:33.640Z,4.50
2023-02-26T15:02:25.516Z,4.60
2023-02-26T15:05:23.299Z,4.60
2023-02-26T15:08:04.022Z,4.50
2023-02-26T15:11:02.031Z,4.60
2023-02-26T15:13:46.899Z,4.60
2023-02-26T15:16:31.325Z,4.50
2023-02-26T15:19:37.990Z,4.40
2023-02-26T15:22:22.543Z,4.50
2023-02-26T15:24:49.641Z,4.50
2023-02-26T15:27:18.871Z,4.50
2023-02-26T15:29:47.953Z,4.50
2023-02-26T15:32:25.894Z,4.50
2023-02-26T15:35:31.903Z,4.40
2023-02-26T15:38:02.594Z,4.40
2023-02-26T15:40:33.934Z,4.40
2023-02-26T15:43:02.009Z,4.40
2023-02-26T15:45:36.041Z,4.30
2023-02-26T15:48:06.934Z,4.40
2023-02-26T15:50:37.616Z,4.40
2023-02-26T15:53:05.660Z,4.40
2023-02-26T15:55:36.956Z,4.50
2023-02-26T15:58:06.411Z,4.40
2023-02-26T16:00:36.920Z,4.50
2023-02-26T16:03:04.638Z,4.40
2023-02-26T16:05:32.232Z,4.40
2023-02-26T16:07:59.099Z,4.30
2023-02-26T16:10:40.664Z,4.40
2023-02-26T16:13:14.088Z,4.40
2023-02-26T16:15:41.612Z,4.40
2023-02-26T16:18:13.721Z,4.30
2023-02-26T16:20:44.316Z,4.30
2023-02-26T16:23:22.337Z,4.30
2023-02-26T16:26:04.633Z,4.30
2023-02-26T16:28:43.967Z,4.20
2023-02-26T16:31:21.844Z,4.20
2023-02-26T16:34:04.408Z,4.20
2023-02-26T16:36:41.764Z,4.10
2023-02-26T16:39:08.807Z,4.10
2023-02-26T16:41:40.873Z,4.10
2023-02-26T16:44:30.527Z,4.00
2023-02-26T16:46:59.134Z,4.00
2023-02-26T16:49:29.962Z,4.00
2023-02-26T16:51:57.489Z,3.90
2023-02-26T16:54:27.130Z,3.90
2023-02-26T16:57:06.948Z,3.90
2023-02-26T16:59:38.502Z,3.90
2023-02-26T17:02:18.723Z,3.80
2023-02-26T17:04:52.644Z,3.80
2023-02-26T17:07:30.692Z,3.70
2023-02-26T17:10:04.630Z,3.50
2023-02-26T17:12:49.845Z,3.40
2023-02-26T17:15:34.364Z,3.40
2023-02-26T17:18:01.173Z,3.40
2023-02-26T17:20:30.164Z,3.40
2023-02-26T17:22:58.105Z,3.20
2023-02-26T17:25:26.807Z,3.20
2023-02-26T17:27:53.860Z,3.20
2023-02-26T17:30:24.178Z,3.20
2023-02-26T17:32:51.508Z,3.10
2023-02-26T17:35:19.257Z,3.00
2023-02-26T17:37:49.093Z,3.00
2023-02-26T17:40:23.712Z,3.00
2023-02-26T17:42:52.081Z,3.00
2023-02-26T17:45:20.360Z,2.90
2023-02-26T17:47:47.947Z,2.80
2023-02-26T17:50:30.503Z,2.80
2023-02-26T17:52:58.044Z,2.80
2023-02-26T17:55:24.795Z,2.60
2023-02-26T17:57:51.713Z,2.50
2023-02-26T18:00:19.354Z,2.40
2023-02-26T18:02:46.143Z,2.40
2023-02-26T18:05:13.026Z,2.50
2023-02-26T18:07:40.473Z,2.40
2023-02-26T18:10:08.046Z,2.30
2023-02-26T18:12:34.863Z,2.40
2023-02-26T18:15:01.621Z,2.40
2023-02-26T18:17:31.401Z,2.40
2023-02-26T18:19:58.210Z,2.40
2023-02-26T18:22:27.547Z,2.30
2023-02-26T18:24:55.531Z,2.30
2023-02-26T18:27:25.012Z,2.40
2023-02-26T18:30:05.306Z,2.30
2023-02-26T18:32:32.312Z,2.20
2023-02-26T18:34:59.153Z,2.20
2023-02-26T18:37:28.481Z,2.20
2023-02-26T18:39:56.022Z,2.20
2023-02-26T18:42:27.479Z,2.10
2023-02-26T18:44:55.017Z,2.10
2023-02-26T18:47:22.647Z,2.10
2023-02-26T18:49:51.022Z,2.10
2023-02-26T18:52:18.229Z,2.20
2023-02-26T18:54:45.257Z,2.20
2023-02-26T18:57:12.051Z,2.20
2023-02-26T18:59:38.801Z,2.20
2023-02-26T19:02:06.929Z,2.20
2023-02-26T19:04:34.341Z,2.20
2023-02-26T19:07:01.654Z,2.10
2023-02-26T19:09:28.850Z,2.20
2023-02-26T19:11:56.940Z,2.10
2023-02-26T19:14:24.540Z,2.10
2023-02-26T19:16:51.296Z,2.20
2023-02-26T19:19:18.276Z,2.20
2023-02-26T19:21:45.006Z,2.10
2023-02-26T19:24:13.302Z,2.10
2023-02-26T19:26:41.041Z,2.10
2023-02-26T19:29:10.827Z,2.00
2023-02-26T19:31:37.673Z,2.00
2023-02-26T19:34:04.841Z,2.10
2023-02-26T19:36:34.613Z,2.10
2023-02-26T19:39:03.362Z,2.10
2023-02-26T19:41:30.530Z,2.10
2023-02-26T19:43:57.720Z,2.20
2023-02-26T19:46:24.731Z,2.30
2023-02-26T19:48:51.593Z,2.20
2023-02-26T19:51:18.907Z,2.20
2023-02-26T19:53:46.321Z,2.20
2023-02-26T19:56:13.373Z,2.20
2023-02-26T19:58:40.275Z,2.30
2023-02-26T20:01:07.693Z,2.30
2023-02-26T20:03:35.152Z,2.40
2023-02-26T20:06:02.740Z,2.40
2023-02-26T20:08:30.159Z,2.40
2023-02-26T20:11:02.262Z,2.40
2023-02-26T20:13:30.220Z,2.40
2023-02-26T20:16:01.016Z,2.40
2023-02-26T20:18:30.849Z,2.50
2023-02-26T20:21:03.831Z,2.50
2023-02-26T20:23:34.750Z,2.50
2023-02-26T20:26:02.009Z,2.50
2023-02-26T20:28:28.747Z,2.50
2023-02-26T20:30:55.676Z,2.50
2023-02-26T20:33:22.550Z,2.50
2023-02-26T20:35:49.812Z,2.40
2023-02-26T20:38:18.773Z,2.40
2023-02-26T20:40:47.282Z,2.40
2023-02-26T20:43:14.397Z,2.50
2023-02-26T20:45:41.984Z,2.40
2023-02-26T20:48:09.812Z,2.50
2023-02-26T20:50:37.156Z,2.40
2023-02-26T20:53:05.134Z,2.40
2023-02-26T20:55:31.906Z,2.30
2023-02-26T20:57:58.695Z,2.30
2023-02-26T21:00:25.593Z,2.40
2023-02-26T21:02:52.796Z,2.30
2023-02-26T21:05:19.713Z,2.30
2023-02-26T21:07:46.940Z,2.30
2023-02-26T21:10:16.757Z,2.30
2023-02-26T21:12:43.946Z,2.40
2023-02-26T21:15:11.760Z,2.40
2023-02-26T21:17:42.905Z,2.30
2023-02-26T21:20:12.768Z,2.50
2023-02-26T21:22:40.030Z,2.50
2023-02-26T21:25:11.535Z,2.40
2023-02-26T21:27:38.735Z,2.40
2023-02-26T21:30:06.892Z,2.20
2023-02-26T21:32:33.877Z,2.20
2023-02-26T21:35:03.673Z,2.10
2023-02-26T21:37:30.940Z,2.10
2023-02-26T21:39:57.784Z,2.00
2023-02-26T21:42:25.418Z,2.00
2023-02-26T21:44:52.203Z,1.90
2023-02-26T21:47:19.054Z,2.00
2023-02-26T21:49:45.818Z,2.00
2023-02-26T21:52:13.057Z,2.10
2023-02-26T21:54:40.114Z,2.10
2023-02-26T21:57:07.121Z,2.10
2023-02-26T21:59:34.508Z,2.00
2023-02-26T22:02:01.542Z,2.00
2023-02-26T22:04:28.415Z,1.90
2023-02-26T22:06:55.223Z,2.00
2023-02-26T22:09:23.025Z,2.10
2023-02-26T22:11:50.014Z,2.00
2023-02-26T22:14:16.806Z,2.00
2023-02-26T22:16:43.694Z,1.90
2023-02-26T22:19:10.546Z,1.90
2023-02-26T22:21:37.336Z,1.80
2023-02-26T22:24:05.282Z,1.70
2023-02-26T22:26:32.271Z,1.60
2023-02-26T22:29:00.742Z,1.50
2023-02-26T22:31:29.252Z,1.50
2023-02-26T22:33:57.388Z,1.40
2023-02-26T22:36:25.309Z,1.40
2023-02-26T22:38:52.072Z,1.30
2023-02-26T22:41:18.869Z,1.40
2023-02-26T22:43:45.690Z,1.30
2023-02-26T22:46:12.442Z,1.30
2023-02-26T22:48:39.187Z,1.20
2023-02-26T22:51:06.008Z,1.10
2023-02-26T22:53:32.755Z,1.10
2023-02-26T22:55:59.453Z,1.00
2023-02-26T22:58:26.307Z,0.90
2023-02-26T23:01:04.089Z,0.90
2023-02-26T23:03:31.532Z,0.90
2023-02-26T23:05:58.738Z,0.90
2023-02-26T23:08:26.011Z,0.80
2023-02-26T23:10:57.690Z,0.80
2023-02-26T23:13:25.157Z,0.80
2023-02-26T23:15:52.272Z,0.70
2023-02-26T23:18:19.328Z,0.60
2023-02-26T23:20:46.229Z,0.50
2023-02-26T23:23:12.973Z,0.50
2023-02-26T23:25:41.953Z,0.50
2023-02-26T23:28:09.205Z,0.50
2023-02-26T23:30:36.519Z,0.50
2023-02-26T23:33:04.594Z,0.50
2023-02-26T23:35:31.381Z,0.50
2023-02-26T23:37:58.115Z,0.50
2023-02-26T23:40:25.144Z,0.40
2023-02-26T23:42:52.580Z,0.40
2023-02-26T23:45:19.446Z,0.30
2023-02-26T23:47:46.151Z,0.30
2023-02-26T23:50:13.045Z,0.20
2023-02-26T23:52:39.793Z,0.10
2023-02-26T23:55:07.609Z,0.20
2023-02-26T23:57:34.371Z,0.20
